Time;durP1;ratioP1;P1;durP2;ratioP2;P2;SDS_P1;SDS_P2;PMS_P1;PMS_P2;Temp;Humidity;BMP_temperature;BMP_pressure;BME280_temperature;BME280_humidity;BME280_pressure;Samples;Min_cycle;Max_cycle;Signal;HPM_P1;HPM_P2
2022/08/17 00:02:29;;;;;;;;;;;;;;;13.98;43.59;97591.50;6220269;28;19925;-65
2022/08/17 00:05:32;;;;;;;;;;;;;;;13.91;44.12;97596.38;6220677;28;20403;-66
2022/08/17 00:08:36;;;;;;;;;;;;;;;13.78;44.02;97592.84;6220869;28;19931;-66
2022/08/17 00:11:39;;;;;;;;;;;;;;;13.67;44.29;97593.53;6221025;28;20327;-66
2022/08/17 00:14:40;;;;;;;;;;;;;;;13.59;44.68;97590.56;6220801;28;19934;-65
2022/08/17 00:17:44;;;;;;;;;;;;;;;13.50;45.41;97601.72;6220809;28;19941;-66
2022/08/17 00:20:48;;;;;;;;;;;;;;;13.45;45.03;97589.69;6220836;28;20075;-66
2022/08/17 00:23:51;;;;;;;;;;;;;;;13.44;45.54;97593.25;6221214;28;19929;-66
2022/08/17 00:26:55;;;;;;;;;;;;;;;13.46;49.51;97591.38;6220853;28;19929;-66
2022/08/17 00:29:59;;;;;;;;;;;;;;;13.54;46.67;97600.59;6221333;28;19926;-65
2022/08/17 00:33:00;;;;;;;;;;;;;;;13.54;46.86;97592.66;6220989;28;19925;-65
2022/08/17 00:36:04;;;;;;;;;;;;;;;13.57;44.79;97587.19;6220509;28;19959;-65
2022/08/17 00:39:10;;;;;;;;;;;;;;;13.53;45.15;97601.53;6221245;28;20019;-65
2022/08/17 00:42:18;;;;;;;;;;;;;;;13.46;45.31;97596.66;6221074;28;19926;-65
2022/08/17 00:45:19;;;;;;;;;;;;;;;13.40;46.00;97598.84;6220224;28;19979;-65
2022/08/17 00:48:23;;;;;;;;;;;;;;;13.41;48.57;97604.03;6221063;28;19930;-65
2022/08/17 00:51:36;;;;;;;;;;;;;;;13.45;48.79;97605.53;6220903;28;19926;-65
2022/08/17 00:54:40;;;;;;;;;;;;;;;13.48;48.94;97605.34;6220457;28;19926;-65
2022/08/17 00:57:43;;;;;;;;;;;;;;;13.52;46.41;97610.41;6220670;28;20288;-65
2022/08/17 01:00:45;;;;;;;;;;;;;;;13.52;45.38;97610.41;6220645;28;20445;-65
2022/08/17 01:03:53;;;;;;;;;;;;;;;13.52;45.67;97610.41;6220915;28;19925;-66
2022/08/17 01:06:56;;;;;;;;;;;;;;;13.57;49.58;97608.34;6220446;28;20410;-66
2022/08/17 01:10:05;;;;;;;;;;;;;;;13.66;45.20;97602.44;6220068;28;19926;-66
2022/08/17 01:13:10;;;;;;;;;;;;;;;13.66;45.41;97603.28;6221075;28;19929;-66
2022/08/17 01:16:27;;;;;;;;;;;;;;;13.64;45.02;97593.75;6219982;28;19932;-65
2022/08/17 01:19:38;;;;;;;;;;;;;;;13.59;45.70;97602.00;6223682;28;19925;-65
2022/08/17 01:22:39;;;;;;;;;;;;;;;13.58;45.71;97602.09;6224086;28;19987;-65
2022/08/17 01:25:43;;;;;;;;;;;;;;;13.58;45.42;97599.44;6224127;28;19932;-65
2022/08/17 01:28:49;;;;;;;;;;;;;;;13.62;47.18;97595.66;6225110;28;19957;-65
2022/08/17 01:31:55;;;;;;;;;;;;;;;13.70;45.66;97588.91;6225047;28;19925;-66
2022/08/17 01:34:59;;;;;;;;;;;;;;;13.83;45.51;97590.75;6224844;28;19925;-66
2022/08/17 01:38:02;;;;;;;;;;;;;;;13.95;46.19;97597.00;6223896;28;20296;-66
2022/08/17 01:41:11;;;;;;;;;;;;;;;14.06;48.24;97595.34;6224887;28;20370;-67
2022/08/17 01:44:15;;;;;;;;;;;;;;;14.18;48.14;97588.34;6224510;28;19925;-65
2022/08/17 01:47:16;;;;;;;;;;;;;;;14.27;45.37;97593.03;6224205;28;19969;-65
2022/08/17 01:50:25;;;;;;;;;;;;;;;14.37;44.61;97593.25;6224499;28;19925;-69
2022/08/17 01:53:35;;;;;;;;;;;;;;;14.45;44.67;97600.69;6223462;28;19931;-65
2022/08/17 01:56:40;;;;;;;;;;;;;;;14.55;44.75;97604.41;6207366;28;19925;-65
2022/08/17 01:59:44;;;;;;;;;;;;;;;14.60;44.78;97605.78;6224067;28;19925;-65
2022/08/17 02:02:47;;;;;;;;;;;;;;;14.64;44.29;97595.84;6223609;28;19926;-66
2022/08/17 02:05:52;;;;;;;;;;;;;;;14.66;44.65;97601.84;6224269;28;19925;-65
2022/08/17 02:08:56;;;;;;;;;;;;;;;14.68;44.30;97597.31;6223246;28;19978;-65
2022/08/17 02:12:02;;;;;;;;;;;;;;;14.71;45.04;97602.38;6223672;28;19929;-65
2022/08/17 02:15:05;;;;;;;;;;;;;;;14.77;44.52;97596.66;6222845;28;19925;-65
2022/08/17 02:18:10;;;;;;;;;;;;;;;14.85;44.67;97603.22;6222900;28;20449;-64
2022/08/17 02:21:12;;;;;;;;;;;;;;;14.93;45.15;97606.19;6222994;28;20300;-66
2022/08/17 02:24:16;;;;;;;;;;;;;;;15.03;45.61;97607.19;6223349;28;19932;-65
2022/08/17 02:27:19;;;;;;;;;;;;;;;15.14;45.19;97599.34;6223455;28;19925;-65
2022/08/17 02:30:20;;;;;;;;;;;;;;;15.26;44.20;97609.06;6221359;28;20307;-65
2022/08/17 02:33:24;;;;;;;;;;;;;;;15.40;43.78;97604.56;6223285;28;20447;-64
2022/08/17 02:36:27;;;;;;;;;;;;;;;15.52;43.88;97603.69;6223260;28;19992;-66
2022/08/17 02:39:30;;;;;;;;;;;;;;;15.63;43.70;97611.69;6223102;28;20072;-66
2022/08/17 02:42:35;;;;;;;;;;;;;;;15.75;44.02;97609.97;6222995;28;19932;-65
2022/08/17 02:45:38;;;;;;;;;;;;;;;15.88;44.78;97607.25;6223179;28;19925;-65
2022/08/17 02:48:39;;;;;;;;;;;;;;;16.00;44.88;97603.69;6221860;28;20481;-65
2022/08/17 02:51:43;;;;;;;;;;;;;;;16.19;45.73;97607.59;6222675;28;19925;-66
2022/08/17 02:54:47;;;;;;;;;;;;;;;16.36;45.17;97608.03;6222729;28;19933;-64
2022/08/17 02:57:51;;;;;;;;;;;;;;;16.59;44.76;97611.56;6221804;28;19929;-66
2022/08/17 03:00:52;;;;;;;;;;;;;;;16.79;45.22;97614.50;6221361;28;19972;-65
2022/08/17 03:03:55;;;;;;;;;;;;;;;16.96;43.16;97606.03;6222484;28;20002;-65
2022/08/17 03:06:59;;;;;;;;;;;;;;;17.08;43.56;97614.03;6222339;28;20303;-65
2022/08/17 03:10:06;;;;;;;;;;;;;;;17.18;42.44;97612.31;6222437;28;20040;-65
2022/08/17 03:13:07;;;;;;;;;;;;;;;17.23;43.05;97610.97;6222468;28;20403;-65
2022/08/17 03:16:08;;;;;;;;;;;;;;;17.29;43.26;97604.31;6222206;28;19925;-65
2022/08/17 03:19:09;;;;;;;;;;;;;;;17.38;43.28;97608.91;6222199;28;20387;-65
2022/08/17 03:22:10;;;;;;;;;;;;;;;17.48;43.88;97604.50;6222123;28;19948;-65
2022/08/17 03:25:13;;;;;;;;;;;;;;;17.61;44.97;97604.38;6221406;28;20344;-66
2022/08/17 03:28:15;;;;;;;;;;;;;;;17.73;42.99;97611.34;6222131;28;19925;-65
2022/08/17 03:31:17;;;;;;;;;;;;;;;17.86;42.90;97608.56;6222054;28;20031;-66
2022/08/17 03:34:18;;;;;;;;;;;;;;;17.93;42.52;97606.22;6221930;28;19933;-66
2022/08/17 03:37:22;;;;;;;;;;;;;;;18.06;42.86;97608.69;6222044;28;19926;-66
2022/08/17 03:40:28;;;;;;;;;;;;;;;18.17;42.87;97600.66;6221456;28;20350;-65
2022/08/17 03:43:31;;;;;;;;;;;;;;;18.31;42.51;97608.31;6221789;28;20016;-65
2022/08/17 03:56:43;;;;;;;;;;;;;;;19.01;41.54;97603.28;6220544;28;19957;-65
2022/08/17 03:59:45;;;;;;;;;;;;;;;19.15;40.96;97602.91;6221013;28;19925;-65
2022/08/17 04:02:49;;;;;;;;;;;;;;;19.32;40.56;97598.75;6221519;28;19925;-66
2022/08/17 04:05:53;;;;;;;;;;;;;;;19.42;40.48;97598.75;6220825;28;19926;-65
2022/08/17 04:08:56;;;;;;;;;;;;;;;19.50;40.44;97606.91;6221524;28;19969;-65
2022/08/17 04:12:00;;;;;;;;;;;;;;;19.56;40.29;97601.06;6221533;28;20311;-66
2022/08/17 04:15:01;;;;;;;;;;;;;;;19.67;39.75;97600.97;6220851;28;20579;-65
2022/08/17 04:18:07;;;;;;;;;;;;;;;19.78;39.27;97588.44;6221407;28;20024;-66
2022/08/17 04:21:08;;;;;;;;;;;;;;;19.86;39.35;97591.25;6220381;28;19926;-65
2022/08/17 04:24:12;;;;;;;;;;;;;;;19.93;39.13;97589.75;6220579;28;19972;-65
2022/08/17 04:27:15;;;;;;;;;;;;;;;20.03;39.11;97593.22;6221057;28;19926;-65
2022/08/17 04:30:22;;;;;;;;;;;;;;;20.16;38.67;97591.13;6221247;28;19925;-65
2022/08/17 04:33:27;;;;;;;;;;;;;;;20.24;38.19;97589.56;6221786;28;19932;-66
2022/08/17 04:36:28;;;;;;;;;;;;;;;20.30;38.48;97594.34;6220570;28;19936;-66
2022/08/17 04:39:31;;;;;;;;;;;;;;;20.46;38.09;97591.91;6220168;28;19932;-64
2022/08/17 04:42:34;;;;;;;;;;;;;;;20.58;37.70;97598.84;6220105;28;20435;-65
2022/08/17 04:45:42;;;;;;;;;;;;;;;20.67;37.66;97602.47;6220736;28;19925;-66
2022/08/17 04:48:48;;;;;;;;;;;;;;;20.80;36.81;97602.97;6220505;28;19932;-65
2022/08/17 04:51:49;;;;;;;;;;;;;;;20.89;36.60;97595.06;6220369;28;19925;-65
2022/08/17 04:54:55;;;;;;;;;;;;;;;21.00;36.63;97585.00;6224807;28;19926;-66
2022/08/17 04:57:58;;;;;;;;;;;;;;;21.27;36.13;97583.34;6226029;28;20403;-66
2022/08/17 05:01:01;;;;;;;;;;;;;;;24.15;32.67;97585.06;6225174;28;19926;-65
2022/08/17 05:04:07;;;;;;;;;;;;;;;29.67;26.58;97596.13;6225257;28;19925;-66
2022/08/17 05:07:09;;;;;;;;;;;;;;;34.54;22.16;97607.56;6224339;28;20333;-65
2022/08/17 05:10:15;;;;;;;;;;;;;;;37.35;21.05;97611.53;6225151;28;19925;-66
2022/08/17 05:13:23;;;;;;;;;;;;;;;40.56;14.94;97604.88;6225254;28;19944;-65
2022/08/17 05:16:28;;;;;;;;;;;;;;;43.24;16.33;97604.22;6225173;28;20307;-65
2022/08/17 05:19:32;;;;;;;;;;;;;;;45.03;16.75;97606.47;6223624;28;20419;-66
2022/08/17 05:22:35;;;;;;;;;;;;;;;46.48;14.86;97603.22;6223639;28;19925;-65
2022/08/17 05:25:46;;;;;;;;;;;;;;;47.44;12.16;97605.50;6224526;28;19926;-65
2022/08/17 05:28:48;;;;;;;;;;;;;;;48.61;9.67;97607.84;6223860;28;20015;-66
2022/08/17 05:31:52;;;;;;;;;;;;;;;49.70;8.98;97603.81;6224565;28;19929;-66
2022/08/17 05:34:54;;;;;;;;;;;;;;;51.10;11.81;97609.94;6223856;28;20392;-66
2022/08/17 05:37:56;;;;;;;;;;;;;;;52.42;7.94;97591.78;6223146;28;19932;-65
2022/08/17 05:41:02;;;;;;;;;;;;;;;53.46;9.94;97605.09;6223511;28;20395;-65
2022/08/17 05:44:03;;;;;;;;;;;;;;;54.27;7.28;97594.94;6223422;28;20378;-66
2022/08/17 05:47:06;;;;;;;;;;;;;;;54.32;8.55;97590.22;6224294;28;20457;-66
2022/08/17 05:50:26;;;;;;;;;;;;;;;54.78;8.62;97588.34;6223107;28;19936;-65
2022/08/17 05:53:46;;;;;;;;;;;;;;;55.00;7.53;97586.78;6206614;28;20395;-64
2022/08/17 05:57:03;;;;;;;;;;;;;;;54.57;7.04;97585.91;6205802;28;19980;-64
2022/08/17 06:00:22;;;;;;;;;;;;;;;54.47;6.63;97572.41;6223721;28;19926;-65
2022/08/17 06:03:36;;;;;;;;;;;;;;;54.91;5.09;97572.09;6223974;28;19925;-65
2022/08/17 06:07:00;;;;;;;;;;;;;;;56.00;5.95;97577.16;6223816;28;19925;-66
2022/08/17 06:10:42;;;;;;;;;;;;;;;56.15;5.73;97583.00;6223894;28;20399;-65
2022/08/17 06:14:03;;;;;;;;;;;;;;;56.58;4.88;97577.91;6124857;29;20022;-65
2022/08/17 06:17:09;;;;;;;;;;;;;;;56.95;3.73;97575.09;6131817;28;20025;-64
2022/08/17 06:20:14;;;;;;;;;;;;;;;57.63;4.43;97581.34;6223493;28;20399;-66
2022/08/17 06:23:31;;;;;;;;;;;;;;;57.11;4.72;97574.84;6223586;28;19925;-65
2022/08/17 06:26:38;;;;;;;;;;;;;;;55.44;3.93;97560.16;6220635;28;20305;-66
2022/08/17 06:29:48;;;;;;;;;;;;;;;54.72;4.81;97558.84;6223324;28;20003;-64
2022/08/17 06:32:52;;;;;;;;;;;;;;;53.65;4.87;97548.84;6223559;28;19925;-64
2022/08/17 06:36:01;;;;;;;;;;;;;;;53.37;4.03;97547.03;6223293;28;19922;-64
2022/08/17 06:39:16;;;;;;;;;;;;;;;53.82;4.92;97551.31;6223238;28;20555;-65
2022/08/17 06:42:19;;;;;;;;;;;;;;;54.67;4.25;97540.25;6223152;28;20303;-65
2022/08/17 06:45:31;;;;;;;;;;;;;;;56.11;4.53;97542.56;6222733;28;20402;-66
2022/08/17 06:48:39;;;;;;;;;;;;;;;57.23;4.17;97546.28;6222952;28;20279;-66
2022/08/17 06:51:50;;;;;;;;;;;;;;;57.67;3.90;97538.91;6205256;28;20474;-65
2022/08/17 06:55:03;;;;;;;;;;;;;;;58.18;4.02;97544.50;6222622;28;20286;-65
2022/08/17 06:58:07;;;;;;;;;;;;;;;58.29;3.62;97535.19;6222774;28;20024;-64
2022/08/17 07:01:15;;;;;;;;;;;;;;;58.33;3.00;97536.84;6222781;28;19926;-64
2022/08/17 07:04:21;;;;;;;;;;;;;;;59.16;3.22;97545.56;6222179;28;19929;-65
2022/08/17 07:10:49;;;;;;;;;;;;;;;57.25;3.81;97526.06;6222330;28;19925;-65
2022/08/17 07:13:56;;;;;;;;;;;;;;;56.21;4.18;97525.75;6222339;28;19935;-65
2022/08/17 07:17:01;;;;;;;;;;;;;;;55.26;3.96;97515.47;6221235;28;19933;-65
2022/08/17 07:20:07;;;;;;;;;;;;;;;54.11;4.89;97500.47;6221760;28;20307;-65
2022/08/17 07:23:25;;;;;;;;;;;;;;;54.24;4.50;97504.72;6222194;28;19929;-65
2022/08/17 07:26:28;;;;;;;;;;;;;;;55.36;4.45;97497.94;6221838;28;19925;-65
2022/08/17 07:29:36;;;;;;;;;;;;;;;56.60;3.88;97496.38;6221544;28;19925;-66
2022/08/17 07:32:49;;;;;;;;;;;;;;;56.76;3.70;97505.41;6221851;28;19926;-65
2022/08/17 07:35:52;;;;;;;;;;;;;;;56.01;4.08;97498.91;6222063;28;19935;-65
2022/08/17 07:38:57;;;;;;;;;;;;;;;54.42;4.12;97488.22;6221484;28;19925;-65
2022/08/17 07:42:03;;;;;;;;;;;;;;;53.67;4.66;97487.44;6203708;28;19925;-65
2022/08/17 07:48:17;;;;;;;;;;;;;;;53.71;4.56;97479.91;6221644;28;19925;-65
2022/08/17 07:48:34;;;;;;;;;;;;;;;54.54;4.49;97485.22;6221509;28;19925;-65
2022/08/17 07:51:39;;;;;;;;;;;;;;;54.91;3.65;97487.50;6221529;28;19926;-64
2022/08/17 07:54:43;;;;;;;;;;;;;;;55.28;4.40;97489.75;6221303;28;19932;-65
2022/08/17 07:57:53;;;;;;;;;;;;;;;56.33;3.60;97496.47;6221050;28;19925;-64
2022/08/17 08:01:07;;;;;;;;;;;;;;;56.91;3.79;97487.41;6220911;28;19976;-65
2022/08/17 08:04:15;;;;;;;;;;;;;;;56.84;3.36;97483.66;6220958;28;19925;-65
2022/08/17 08:07:19;;;;;;;;;;;;;;;57.18;3.30;97486.41;6221401;28;20024;-65
2022/08/17 08:10:28;;;;;;;;;;;;;;;58.37;3.55;97488.69;6221345;28;20358;-65
2022/08/17 08:13:31;;;;;;;;;;;;;;;59.15;3.30;97487.19;6221402;28;19926;-65
2022/08/17 08:16:36;;;;;;;;;;;;;;;59.13;3.09;97483.94;6220905;28;19925;-66
2022/08/17 08:19:39;;;;;;;;;;;;;;;59.69;2.33;97482.25;6221172;28;20019;-65
2022/08/17 08:22:47;;;;;;;;;;;;;;;59.61;2.67;97474.97;6221416;28;19926;-65
2022/08/17 08:25:50;;;;;;;;;;;;;;;59.66;2.64;97477.41;6221543;28;20280;-64
2022/08/17 08:29:02;;;;;;;;;;;;;;;60.02;2.14;97465.91;6208223;28;20020;-64
2022/08/17 08:32:12;;;;;;;;;;;;;;;60.46;2.61;97479.50;6226214;28;19925;-65
2022/08/17 08:35:30;;;;;;;;;;;;;;;58.85;2.77;97466.50;6226265;28;19922;-66
2022/08/17 08:38:52;;;;;;;;;;;;;;;58.74;2.75;97456.38;6226016;28;20391;-66
2022/08/17 08:41:59;;;;;;;;;;;;;;;58.31;3.29;97447.78;6226042;28;19926;-68
2022/08/17 08:45:08;;;;;;;;;;;;;;;57.11;3.31;97444.72;6225921;28;20533;-65
2022/08/17 08:48:21;;;;;;;;;;;;;;;54.55;3.95;97422.03;6225888;28;20418;-67
2022/08/17 08:51:22;;;;;;;;;;;;;;;51.43;5.33;97411.59;6208211;28;20300;-66
2022/08/17 08:54:41;;;;;;;;;;;;;;;52.40;4.70;97411.56;6225615;28;19973;-66
2022/08/17 08:58:21;;;;;;;;;;;;;;;53.37;4.63;97412.00;6225507;28;20391;-64
2022/08/17 09:01:24;;;;;;;;;;;;;;;54.12;4.05;97404.34;6126556;29;19926;-65
2022/08/17 09:04:34;;;;;;;;;;;;;;;52.30;4.85;97401.69;6126662;29;19926;-65
2022/08/17 09:07:57;;;;;;;;;;;;;;;47.50;6.96;97396.28;6225405;28;20072;-65
2022/08/17 09:11:05;;;;;;;;;;;;;;;44.20;8.83;97378.69;6225155;28;19926;-66
2022/08/17 09:14:24;;;;;;;;;;;;;;;45.78;7.99;97388.47;6225058;28;19925;-65
2022/08/17 09:17:34;;;;;;;;;;;;;;;47.32;7.01;97384.28;6224860;28;19925;-65
2022/08/17 09:20:39;;;;;;;;;;;;;;;48.94;6.37;97382.69;6224799;28;20299;-66
2022/08/17 09:23:43;;;;;;;;;;;;;;;50.39;5.82;97384.13;6224754;28;19929;-66
2022/08/17 09:27:15;;;;;;;;;;;;;;;51.60;5.28;97398.47;6224808;28;19925;-66
2022/08/17 09:30:20;;;;;;;;;;;;;;;51.82;5.21;97394.31;6208165;28;19925;-65
2022/08/17 09:33:25;;;;;;;;;;;;;;;50.22;5.95;97380.31;6224480;28;20339;-65
2022/08/17 09:36:33;;;;;;;;;;;;;;;49.13;6.28;97373.03;6224441;28;19925;-64
2022/08/17 09:39:54;;;;;;;;;;;;;;;49.18;6.17;97364.47;6206492;28;19925;-65
2022/08/17 09:43:00;;;;;;;;;;;;;;;49.96;6.21;97371.41;6223849;28;19932;-65
2022/08/17 09:46:10;;;;;;;;;;;;;;;50.23;5.89;97365.19;6224361;28;19925;-65
2022/08/17 09:49:16;;;;;;;;;;;;;;;51.69;5.37;97370.28;6223492;28;19988;-64
2022/08/17 09:52:20;;;;;;;;;;;;;;;52.80;5.08;97365.63;6223555;28;19932;-65
2022/08/17 09:55:44;;;;;;;;;;;;;;;52.66;5.33;97362.47;6224037;28;19929;-64
2022/08/17 09:59:00;;;;;;;;;;;;;;;53.11;4.75;97355.53;6223284;28;19925;-65
2022/08/17 10:02:08;;;;;;;;;;;;;;;52.74;5.10;97350.25;6223065;28;19968;-65
2022/08/17 10:05:20;;;;;;;;;;;;;;;51.58;5.41;97353.91;6223417;28;19925;-66
2022/08/17 10:08:38;;;;;;;;;;;;;;;51.26;5.56;97349.34;6223042;28;20392;-65
2022/08/17 10:15:16;;;;;;;;;;;;;;;50.52;5.78;97349.38;6222313;28;19926;-64
2022/08/17 10:18:20;;;;;;;;;;;;;;;49.43;6.19;97335.50;6204971;28;20000;-64
2022/08/17 10:28:13;;;;;;;;;;;;;;;47.35;7.11;97325.09;6222305;28;19925;-65
2022/08/17 10:31:22;;;;;;;;;;;;;;;48.44;7.04;97319.16;6221831;28;19925;-64
2022/08/17 10:34:39;;;;;;;;;;;;;;;48.69;6.48;97322.16;6204933;28;19933;-65
2022/08/17 10:37:55;;;;;;;;;;;;;;;49.27;6.43;97317.72;6222019;28;19926;-65
2022/08/17 10:41:16;;;;;;;;;;;;;;;49.48;6.05;97317.69;6221889;28;19936;-65
2022/08/17 10:44:18;;;;;;;;;;;;;;;48.98;6.41;97322.19;6222343;28;20312;-64
2022/08/17 10:47:25;;;;;;;;;;;;;;;47.80;7.03;97314.44;6222663;28;19983;-65
2022/08/17 10:50:46;;;;;;;;;;;;;;;47.12;7.60;97307.72;6220764;28;19935;-66
2022/08/17 10:53:48;;;;;;;;;;;;;;;47.02;7.52;97308.81;6204477;28;19929;-66
2022/08/17 10:56:52;;;;;;;;;;;;;;;47.22;7.56;97299.00;6222084;28;19926;-65
2022/08/17 11:00:16;;;;;;;;;;;;;;;46.77;7.86;97307.63;6222542;28;20307;-66
2022/08/17 11:03:19;;;;;;;;;;;;;;;46.24;8.10;97301.03;6220989;28;20319;-66
2022/08/17 11:06:21;;;;;;;;;;;;;;;46.33;8.04;97299.13;6222594;28;19925;-64
2022/08/17 11:09:43;;;;;;;;;;;;;;;45.50;8.29;97289.63;6222441;28;20407;-66
2022/08/17 11:13:00;;;;;;;;;;;;;;;43.88;9.42;97293.53;6445876;27;19991;-65
2022/08/17 11:16:01;;;;;;;;;;;;;;;42.73;10.06;97288.38;6444950;27;19929;-65
2022/08/17 11:19:08;;;;;;;;;;;;;;;42.16;10.30;97277.16;6445300;27;20029;-65
2022/08/17 11:22:21;;;;;;;;;;;;;;;42.03;10.19;97267.59;6445056;27;19923;-66
2022/08/17 11:25:42;;;;;;;;;;;;;;;42.74;9.85;97271.47;6445352;27;19922;-66
2022/08/17 11:28:51;;;;;;;;;;;;;;;42.31;10.42;97276.97;6426349;27;19977;-64
2022/08/17 11:32:04;;;;;;;;;;;;;;;40.94;11.24;97268.75;6445150;27;19922;-65
2022/08/17 11:35:11;;;;;;;;;;;;;;;40.79;11.06;97263.31;6445237;27;19923;-66
2022/08/17 11:38:24;;;;;;;;;;;;;;;41.17;11.06;97270.00;6444816;27;19923;-65
2022/08/17 11:41:47;;;;;;;;;;;;;;;41.47;10.75;97271.69;6445046;27;19969;-65
2022/08/17 11:44:56;;;;;;;;;;;;;;;41.78;10.55;97260.38;6444937;27;19926;-66
2022/08/17 11:51:52;;;;;;;;;;;;;;;41.59;11.29;97259.44;6444363;27;19923;-65
2022/08/17 11:54:53;;;;;;;;;;;;;;;40.99;11.46;97265.97;6443897;27;19923;-65
2022/08/17 11:57:59;;;;;;;;;;;;;;;40.44;11.93;97259.59;6442736;27;20299;-65
2022/08/17 12:01:09;;;;;;;;;;;;;;;39.93;12.37;97254.25;6444440;27;19923;-65
2022/08/17 12:04:23;;;;;;;;;;;;;;;39.95;12.39;97252.03;6424657;27;19966;-65
2022/08/17 12:07:28;;;;;;;;;;;;;;;39.74;12.52;97252.03;6443982;27;19923;-66
2022/08/17 12:10:34;;;;;;;;;;;;;;;38.58;13.64;97240.63;6443457;27;19923;-64
2022/08/17 12:13:43;;;;;;;;;;;;;;;37.37;14.17;97236.91;6443801;27;19922;-65
2022/08/17 12:16:56;;;;;;;;;;;;;;;36.83;14.28;97236.91;6443965;27;19924;-65
2022/08/17 12:20:34;;;;;;;;;;;;;;;36.55;14.84;97238.84;6443653;27;19923;-66
2022/08/17 12:23:47;;;;;;;;;;;;;;;36.45;14.91;97232.38;6304177;27;19920;-65
2022/08/17 12:26:59;;;;;;;;;;;;;;;36.54;15.02;97239.91;6425128;27;19923;-65
2022/08/17 12:30:04;;;;;;;;;;;;;;;36.78;15.08;97234.16;6425826;27;20010;-66
2022/08/17 12:33:10;;;;;;;;;;;;;;;37.00;14.78;97236.81;6424880;27;19926;-65
2022/08/17 12:36:15;;;;;;;;;;;;;;;36.97;14.52;97227.22;6425974;27;19923;-65
2022/08/17 12:39:20;;;;;;;;;;;;;;;37.04;14.82;97222.34;6425692;27;19922;-65
2022/08/17 12:42:27;;;;;;;;;;;;;;;37.03;15.04;97225.38;6426134;27;19923;-66
2022/08/17 12:45:33;;;;;;;;;;;;;;;36.93;14.65;97220.56;6425538;27;19923;-65
2022/08/17 12:48:35;;;;;;;;;;;;;;;36.77;14.78;97221.50;6425323;27;19954;-66
2022/08/17 12:51:40;;;;;;;;;;;;;;;36.50;15.18;97218.75;6425010;27;19923;-64
2022/08/17 12:54:45;;;;;;;;;;;;;;;36.37;15.65;97217.22;6425192;27;19923;-65
2022/08/17 12:57:51;;;;;;;;;;;;;;;36.42;15.16;97214.53;6425290;27;19918;-65
2022/08/17 13:00:58;;;;;;;;;;;;;;;36.49;15.38;97220.66;6425490;27;20315;-65
2022/08/17 13:04:05;;;;;;;;;;;;;;;36.34;15.82;97223.22;6424904;27;20264;-65
2022/08/17 13:07:12;;;;;;;;;;;;;;;36.02;16.13;97215.69;6425091;27;19923;-65
2022/08/17 13:10:26;;;;;;;;;;;;;;;35.42;16.29;97210.97;6424785;27;19923;-66
2022/08/17 13:13:30;;;;;;;;;;;;;;;34.83;16.71;97209.44;6424954;27;19930;-66
2022/08/17 13:16:32;;;;;;;;;;;;;;;34.10;17.36;97211.00;6405967;27;19966;-65
2022/08/17 13:19:46;;;;;;;;;;;;;;;33.51;17.71;97208.28;6424769;27;19923;-65
2022/08/17 13:22:52;;;;;;;;;;;;;;;33.16;18.19;97204.72;6424635;27;20307;-65
2022/08/17 13:25:59;;;;;;;;;;;;;;;32.78;18.68;97204.06;6425151;27;19930;-66
2022/08/17 13:29:15;;;;;;;;;;;;;;;32.38;19.54;97203.75;6424693;27;19923;-65
2022/08/17 13:32:37;;;;;;;;;;;;;;;31.98;20.21;97205.06;6424430;27;19923;-65
2022/08/17 13:35:39;;;;;;;;;;;;;;;31.66;19.95;97201.66;6404326;27;19922;-66
2022/08/17 13:38:46;;;;;;;;;;;;;;;31.47;20.47;97202.69;6424138;27;19923;-66
2022/08/17 13:41:49;;;;;;;;;;;;;;;30.93;21.89;97207.72;6424023;27;20029;-66
2022/08/17 13:44:52;;;;;;;;;;;;;;;30.30;22.30;97203.09;6424012;27;19930;-66
2022/08/17 13:48:08;;;;;;;;;;;;;;;30.04;22.75;97203.19;6424073;27;20380;-65
2022/08/17 13:51:16;;;;;;;;;;;;;;;29.86;22.75;97201.97;6423185;27;19923;-65
2022/08/17 13:54:25;;;;;;;;;;;;;;;30.15;22.38;97199.81;6423814;27;19930;-65
2022/08/17 13:57:27;;;;;;;;;;;;;;;30.57;21.90;97208.34;6423908;27;19975;-65
2022/08/17 14:00:32;;;;;;;;;;;;;;;30.82;21.65;97205.72;6423802;27;19954;-66
2022/08/17 14:03:41;;;;;;;;;;;;;;;30.71;21.99;97201.78;6424022;27;20337;-65
2022/08/17 14:06:53;;;;;;;;;;;;;;;30.56;22.61;97207.53;6423966;27;19946;-66
2022/08/17 14:09:57;;;;;;;;;;;;;;;30.36;22.59;97210.34;6422463;27;19922;-67
2022/08/17 14:13:01;;;;;;;;;;;;;;;30.27;22.90;97208.94;6405152;27;19922;-67
2022/08/17 14:16:02;;;;;;;;;;;;;;;30.10;22.89;97207.75;6423208;27;19929;-65
2022/08/17 14:19:08;;;;;;;;;;;;;;;29.84;23.34;97214.09;6423097;27;19923;-65
2022/08/17 14:22:16;;;;;;;;;;;;;;;29.36;24.02;97212.50;6423098;27;19923;-66
2022/08/17 14:25:22;;;;;;;;;;;;;;;28.79;24.50;97211.19;6422766;27;19923;-65
2022/08/17 14:28:25;;;;;;;;;;;;;;;28.33;25.20;97203.78;6423280;27;19922;-65
2022/08/17 14:31:29;;;;;;;;;;;;;;;27.91;25.69;97197.59;6422757;27;19923;-66
2022/08/17 14:34:30;;;;;;;;;;;;;;;27.53;26.24;97206.94;6423135;27;19927;-65
2022/08/17 14:37:33;;;;;;;;;;;;;;;27.28;26.39;97203.03;6422952;27;19929;-65
2022/08/17 14:40:37;;;;;;;;;;;;;;;26.95;26.76;97197.34;6423232;27;19926;-66
2022/08/17 14:43:44;;;;;;;;;;;;;;;26.76;26.98;97194.28;6423204;27;19922;-66
2022/08/17 14:46:49;;;;;;;;;;;;;;;26.63;27.11;97204.94;6422696;27;19922;-66
2022/08/17 14:49:55;;;;;;;;;;;;;;;26.52;28.07;97200.06;6423280;27;19923;-65
2022/08/17 14:52:59;;;;;;;;;;;;;;;26.33;28.22;97215.84;6422853;27;20387;-65
2022/08/17 14:56:06;;;;;;;;;;;;;;;26.22;28.57;97216.34;6422929;27;19930;-66
2022/08/17 14:59:07;;;;;;;;;;;;;;;26.00;28.26;97215.44;6422553;27;19930;-65
2022/08/17 15:02:12;;;;;;;;;;;;;;;25.83;28.42;97214.81;6422718;27;20395;-65
2022/08/17 15:05:16;;;;;;;;;;;;;;;25.60;28.70;97214.06;6422760;27;19928;-65
2022/08/17 15:08:19;;;;;;;;;;;;;;;25.41;28.88;97210.88;6422558;27;19923;-65
2022/08/17 15:11:23;;;;;;;;;;;;;;;25.18;29.08;97215.50;6422316;27;20405;-65
2022/08/17 15:14:27;;;;;;;;;;;;;;;25.00;29.52;97221.19;6422776;27;19923;-65
2022/08/17 15:17:32;;;;;;;;;;;;;;;24.87;29.44;97213.72;6422580;27;20440;-65
2022/08/17 15:20:34;;;;;;;;;;;;;;;24.73;29.25;97227.97;6422276;27;19930;-66
2022/08/17 15:23:40;;;;;;;;;;;;;;;24.51;29.71;97230.47;6421704;27;19923;-65
2022/08/17 15:26:42;;;;;;;;;;;;;;;24.41;29.85;97230.66;6421975;27;19922;-65
2022/08/17 15:29:45;;;;;;;;;;;;;;;24.31;30.08;97231.91;6421371;27;19923;-64
2022/08/17 15:32:46;;;;;;;;;;;;;;;24.15;30.42;97236.38;6422119;27;19966;-65
2022/08/17 15:35:50;;;;;;;;;;;;;;;24.03;30.29;97237.75;6421951;27;19923;-65
2022/08/17 15:38:57;;;;;;;;;;;;;;;23.98;30.65;97245.53;6403378;27;20366;-65
2022/08/17 15:42:03;;;;;;;;;;;;;;;23.80;30.52;97247.59;6421862;27;19927;-64
2022/08/17 15:45:08;;;;;;;;;;;;;;;23.72;30.87;97252.03;6421659;27;19946;-64
2022/08/17 15:48:13;;;;;;;;;;;;;;;23.60;30.79;97247.97;6421675;27;19930;-66
2022/08/17 15:51:19;;;;;;;;;;;;;;;23.63;31.15;97255.69;6422120;27;20070;-67
2022/08/17 15:54:25;;;;;;;;;;;;;;;23.52;31.24;97261.41;6421793;27;20391;-65
2022/08/17 15:57:34;;;;;;;;;;;;;;;23.33;31.15;97267.19;6423042;27;20391;-65
2022/08/17 16:00:41;;;;;;;;;;;;;;;23.24;31.49;97264.50;6427215;27;19922;-66
2022/08/17 16:03:47;;;;;;;;;;;;;;;23.09;31.48;97258.13;6427018;27;19922;-66
2022/08/17 16:06:50;;;;;;;;;;;;;;;23.09;31.99;97266.19;6408457;27;19923;-65
2022/08/17 16:09:54;;;;;;;;;;;;;;;22.96;32.02;97266.69;6426733;27;19946;-64
2022/08/17 16:12:56;;;;;;;;;;;;;;;22.89;32.07;97264.81;6426214;27;19923;-67
2022/08/17 16:15:59;;;;;;;;;;;;;;;22.81;32.25;97279.88;6425488;27;19923;-65
2022/08/17 16:19:07;;;;;;;;;;;;;;;22.72;32.42;97270.16;6408631;27;20062;-65
2022/08/17 16:22:11;;;;;;;;;;;;;;;22.63;32.91;97273.84;6426622;27;19922;-65
2022/08/17 16:25:20;;;;;;;;;;;;;;;22.58;32.85;97270.81;6426442;27;19929;-65
2022/08/17 16:28:22;;;;;;;;;;;;;;;22.51;33.14;97272.50;6425298;27;19923;-66
2022/08/17 16:31:24;;;;;;;;;;;;;;;22.33;33.96;97272.59;6407778;27;19923;-65
2022/08/17 16:34:29;;;;;;;;;;;;;;;22.32;33.40;97274.44;6426342;27;20017;-66
2022/08/17 16:37:35;;;;;;;;;;;;;;;22.24;33.61;97271.75;6425980;27;19922;-66
2022/08/17 16:40:40;;;;;;;;;;;;;;;22.14;33.64;97271.03;6426235;27;20316;-67
2022/08/17 16:43:44;;;;;;;;;;;;;;;22.04;33.89;97271.13;6408339;27;19923;-65
2022/08/17 16:46:48;;;;;;;;;;;;;;;21.90;33.98;97269.91;6426149;27;20067;-66